Time;durP1;ratioP1;P1;durP2;ratioP2;P2;SDS_P1;SDS_P2;PMS_P1;PMS_P2;Temp;Humidity;BMP_temperature;BMP_pressure;BME280_temperature;BME280_humidity;BME280_pressure;Samples;Min_cycle;Max_cycle;Signal;HPM_P1;HPM_P2
2020/12/15 00:00:20;;;;;;;17.87;9.90;;;;;;;1.48;85.98;98823.72;4937043;29;20023;-60
2020/12/15 00:02:45;;;;;;;18.17;9.60;;;;;;;1.50;86.53;98822.91;4936958;29;20437;-59
2020/12/15 00:05:10;;;;;;;14.80;9.23;;;;;;;1.58;86.52;98820.53;4936907;29;20103;-60
2020/12/15 00:07:36;;;;;;;15.70;9.90;;;;;;;1.70;85.75;98815.72;4937493;29;20024;-61
2020/12/15 00:10:03;;;;;;;13.60;8.83;;;;;;;1.70;85.39;98808.13;4921291;29;20229;-60
2020/12/15 00:12:28;;;;;;;15.60;9.57;;;;;;;1.68;85.21;98803.06;4944916;28;20557;-60
2020/12/15 00:14:53;;;;;;;14.43;9.37;;;;;;;1.57;85.21;98804.53;4957588;28;20034;-60
2020/12/15 00:17:19;;;;;;;14.30;9.17;;;;;;;1.32;86.38;98799.81;4975199;28;20077;-60
2020/12/15 00:19:44;;;;;;;12.53;8.27;;;;;;;1.37;86.72;98805.81;4971064;28;20067;-60
2020/12/15 00:22:10;;;;;;;16.03;9.37;;;;;;;1.44;87.03;98810.19;4956327;29;20042;-61
2020/12/15 00:24:35;;;;;;;14.97;9.23;;;;;;;1.24;86.88;98801.34;4956922;29;20027;-60
2020/12/15 00:27:01;;;;;;;15.63;10.00;;;;;;;1.36;87.27;98802.44;4956903;29;20038;-61
2020/12/15 00:29:26;;;;;;;17.87;10.27;;;;;;;1.38;87.07;98810.03;4939096;29;20121;-61
2020/12/15 00:31:51;;;;;;;19.67;11.97;;;;;;;1.34;86.68;98813.34;4956916;29;20031;-60
2020/12/15 00:34:17;;;;;;;16.47;10.60;;;;;;;1.52;86.73;98813.72;4955901;28;20073;-61
2020/12/15 00:36:42;;;;;;;13.10;8.37;;;;;;;1.56;85.88;98817.16;4937840;29;20053;-61
2020/12/15 00:39:08;;;;;;;16.67;9.93;;;;;;;1.50;85.37;98812.81;4937423;29;20091;-61
2020/12/15 00:41:33;;;;;;;15.87;9.70;;;;;;;1.51;85.64;98812.00;4954424;28;20245;-61
2020/12/15 00:43:58;;;;;;;14.07;8.80;;;;;;;1.38;85.89;98815.09;4974598;28;20463;-61
2020/12/15 00:46:24;;;;;;;13.87;8.57;;;;;;;1.41;86.34;98814.28;4973884;28;20081;-60
2020/12/15 00:48:49;;;;;;;16.83;9.33;;;;;;;1.38;86.74;98828.59;4974423;28;20033;-60
2020/12/15 00:51:16;;;;;;;12.80;8.77;;;;;;;1.40;86.75;98836.16;4958570;28;20360;-62
2020/12/15 00:53:42;;;;;;;15.83;9.37;;;;;;;1.44;86.44;98842.16;4975806;28;20053;-60
2020/12/15 00:56:07;;;;;;;17.33;9.63;;;;;;;1.51;86.55;98836.41;4975007;28;20117;-62
2020/12/15 00:58:36;;;;;;;17.27;9.60;;;;;;;1.58;85.93;98841.59;4975605;28;20054;-60
2020/12/15 01:01:07;;;;;;;17.93;11.00;;;;;;;1.58;85.96;98844.13;4976026;28;20426;-60
2020/12/15 01:03:33;;;;;;;15.30;9.23;;;;;;;1.58;85.40;98820.53;4975904;28;20026;-60
2020/12/15 01:05:59;;;;;;;14.20;9.13;;;;;;;1.59;84.99;98802.03;4976014;28;20356;-61
2020/12/15 01:08:24;;;;;;;15.87;9.43;;;;;;;1.53;85.78;98800.22;4973987;28;20034;-60
2020/12/15 01:10:54;;;;;;;15.90;9.63;;;;;;;1.58;85.56;98810.44;4973457;28;20037;-59
2020/12/15 01:13:19;;;;;;;15.83;9.43;;;;;;;1.61;85.58;98805.47;4973767;28;20054;-60
2020/12/15 01:15:45;;;;;;;14.97;9.23;;;;;;;1.61;85.55;98802.94;4973764;28;20082;-60
2020/12/15 01:18:11;;;;;;;14.90;9.00;;;;;;;1.55;85.55;98810.38;4954701;28;20066;-60
2020/12/15 01:20:36;;;;;;;13.43;8.37;;;;;;;1.61;85.91;98820.63;4952142;29;20031;-59
2020/12/15 01:23:02;;;;;;;14.93;8.70;;;;;;;1.57;85.71;98803.69;4958407;28;20035;-60
2020/12/15 01:25:27;;;;;;;11.70;7.67;;;;;;;1.56;85.38;98799.47;4959016;29;20039;-60
2020/12/15 01:27:52;;;;;;;13.10;7.53;;;;;;;1.64;85.75;98787.81;4959194;29;20126;-60
2020/12/15 01:30:18;;;;;;;12.80;9.00;;;;;;;1.60;85.68;98788.59;4944259;29;20035;-60
2020/12/15 01:32:43;;;;;;;13.90;8.20;;;;;;;1.65;85.26;98795.44;4940876;28;20032;-60
2020/12/15 01:35:09;;;;;;;15.03;9.13;;;;;;;1.57;85.42;98791.06;4946089;28;20337;-60
2020/12/15 01:37:35;;;;;;;14.63;8.97;;;;;;;1.59;85.89;98792.78;4956058;28;20436;-60
2020/12/15 01:40:02;;;;;;;14.90;9.07;;;;;;;1.66;85.75;98807.22;4952831;28;20333;-60
2020/12/15 01:42:27;;;;;;;14.10;8.90;;;;;;;1.69;85.01;98809.84;4959652;29;20098;-59
2020/12/15 01:44:52;;;;;;;13.30;8.27;;;;;;;1.69;84.59;98802.25;4959417;29;20035;-61
2020/12/15 01:47:18;;;;;;;11.33;8.10;;;;;;;1.74;84.23;98799.81;4971017;28;20026;-60
2020/12/15 01:49:44;;;;;;;12.47;8.03;;;;;;;1.73;84.48;98793.91;4973923;28;20064;-60
2020/12/15 01:52:12;;;;;;;11.67;8.00;;;;;;;1.78;84.13;98792.28;4958973;29;20023;-60
2020/12/15 01:54:38;;;;;;;11.00;7.33;;;;;;;1.72;83.87;98796.38;4959693;29;20106;-59
2020/12/15 01:57:03;;;;;;;10.23;7.07;;;;;;;1.72;84.29;98791.34;4959846;29;20039;-60
2020/12/15 01:59:30;;;;;;;11.93;7.70;;;;;;;1.71;84.16;98793.00;4958696;28;20031;-60
2020/12/15 02:01:56;;;;;;;11.90;6.97;;;;;;;1.74;83.29;98794.75;4953410;28;20533;-59
2020/12/15 02:04:21;;;;;;;10.10;6.67;;;;;;;1.71;83.53;98782.91;4958616;29;20031;-60
2020/12/15 02:06:48;;;;;;;11.30;7.30;;;;;;;1.70;83.62;98776.13;4958682;29;20409;-61
2020/12/15 02:09:16;;;;;;;12.30;7.47;;;;;;;1.67;83.92;98771.03;4959154;29;20086;-59
2020/12/15 02:11:46;;;;;;;14.17;7.97;;;;;;;1.66;84.23;98765.94;4957823;28;20031;-61
2020/12/15 02:14:13;;;;;;;11.17;7.67;;;;;;;1.71;83.37;98762.69;4978119;28;20112;-62
2020/12/15 02:16:40;;;;;;;12.87;7.70;;;;;;;1.66;83.71;98761.75;4977591;28;20330;-59
2020/12/15 02:19:13;;;;;;;14.17;7.87;;;;;;;1.62;83.58;98760.00;4978717;28;20038;-60
2020/12/15 02:21:53;;;;;;;12.60;7.63;;;;;;;1.67;83.84;98755.03;4959907;29;20050;-60
2020/12/15 02:24:18;;;;;;;13.63;9.47;;;;;;;1.62;84.32;98742.31;4959423;29;20051;-59
2020/12/15 02:26:45;;;;;;;11.50;7.97;;;;;;;1.66;84.37;98750.78;4959157;29;20090;-60
2020/12/15 02:29:11;;;;;;;10.37;7.33;;;;;;;1.59;84.44;98754.03;4953694;28;20034;-61
2020/12/15 02:31:36;;;;;;;15.17;8.40;;;;;;;1.55;84.23;98737.97;4939961;29;20031;-62
2020/12/15 02:34:02;;;;;;;10.20;7.87;;;;;;;1.52;84.22;98745.50;4938507;28;20036;-61
2020/12/15 02:36:28;;;;;;;12.23;7.77;;;;;;;1.55;84.39;98740.50;4939913;29;20020;-61
2020/12/15 02:38:54;;;;;;;13.60;8.40;;;;;;;1.57;84.77;98758.22;4940002;29;20046;-61
2020/12/15 02:41:20;;;;;;;11.33;7.97;;;;;;;1.37;84.53;98743.53;4940827;29;20036;-61
2020/12/15 02:43:45;;;;;;;12.03;7.23;;;;;;;1.44;84.10;98739.47;4940337;29;20114;-61
2020/12/15 02:46:10;;;;;;;10.70;6.43;;;;;;;1.50;84.04;98753.84;4945937;28;20034;-61
2020/12/15 02:48:36;;;;;;;10.83;7.30;;;;;;;1.58;83.83;98748.13;4976906;28;20102;-62
2020/12/15 02:51:01;;;;;;;11.00;7.03;;;;;;;1.53;83.74;98751.41;4961555;28;20027;-61
2020/12/15 02:53:27;;;;;;;10.83;7.13;;;;;;;1.57;83.72;98751.47;4958174;29;20118;-62
2020/12/15 02:55:52;;;;;;;11.53;7.23;;;;;;;1.60;83.14;98743.13;4958743;29;20568;-62
2020/12/15 02:58:18;;;;;;;11.03;7.67;;;;;;;1.57;83.42;98748.94;4958608;29;20031;-62
2020/12/15 03:00:43;;;;;;;11.87;7.57;;;;;;;1.45;83.85;98748.72;4954772;28;20433;-62
2020/12/15 03:03:08;;;;;;;11.00;7.23;;;;;;;1.41;84.20;98741.06;4939322;29;20357;-61
2020/12/15 03:05:34;;;;;;;12.90;7.63;;;;;;;1.31;84.94;98740.06;4938525;29;20174;-61
2020/12/15 03:07:59;;;;;;;13.27;7.57;;;;;;;1.30;84.33;98738.34;4939352;29;20465;-62
2020/12/15 03:10:24;;;;;;;9.20;6.43;;;;;;;1.43;84.29;98736.91;4939723;29;20039;-62
2020/12/15 03:12:50;;;;;;;12.43;8.20;;;;;;;1.40;83.85;98736.84;4939001;29;20051;-61
2020/12/15 03:15:17;;;;;;;11.70;7.10;;;;;;;1.28;84.41;98742.50;4946995;28;20440;-61
2020/12/15 03:17:42;;;;;;;12.20;7.27;;;;;;;1.14;85.45;98741.41;4958372;28;20066;-61
2020/12/15 03:20:08;;;;;;;11.63;7.20;;;;;;;1.24;85.54;98740.72;4955424;28;20106;-61
2020/12/15 03:22:33;;;;;;;12.03;7.90;;;;;;;1.08;84.70;98739.59;4958415;28;20523;-62
2020/12/15 03:24:58;;;;;;;11.67;7.83;;;;;;;1.11;85.39;98736.25;4956725;28;20114;-62
2020/12/15 03:27:24;;;;;;;13.53;7.90;;;;;;;1.21;85.32;98735.63;4956929;29;20046;-61
2020/12/15 03:29:49;;;;;;;11.93;7.07;;;;;;;1.32;85.10;98726.56;4957922;28;20051;-62
2020/12/15 03:32:14;;;;;;;13.37;8.50;;;;;;;1.28;84.13;98729.88;4957220;28;20027;-61
2020/12/15 03:34:40;;;;;;;14.17;8.33;;;;;;;1.25;84.87;98730.69;4957896;28;20352;-62
2020/12/15 03:37:05;;;;;;;12.33;7.43;;;;;;;1.31;84.38;98727.44;4956920;28;20058;-61
2020/12/15 03:39:31;;;;;;;11.07;6.87;;;;;;;1.39;84.28;98728.41;4956908;28;20098;-62
2020/12/15 03:41:56;;;;;;;11.87;7.20;;;;;;;1.44;84.00;98731.88;4956692;28;20090;-62
2020/12/15 03:44:23;;;;;;;10.67;7.90;;;;;;;1.41;83.89;98729.28;4957611;28;20038;-61
2020/12/15 03:46:48;;;;;;;11.03;6.57;;;;;;;1.15;83.52;98726.25;4956747;28;20086;-60
2020/12/15 03:49:14;;;;;;;12.10;8.30;;;;;;;1.21;84.62;98723.00;4957715;29;20034;-61
2020/12/15 03:51:39;;;;;;;12.77;7.43;;;;;;;1.29;84.49;98718.94;4956946;29;20556;-61
2020/12/15 03:54:05;;;;;;;10.80;7.67;;;;;;;1.32;84.65;98726.56;4955845;28;20368;-61
2020/12/15 03:56:30;;;;;;;14.10;9.10;;;;;;;1.39;84.04;98715.78;4956863;29;20023;-61
2020/12/15 03:58:55;;;;;;;12.60;7.80;;;;;;;1.41;84.16;98721.69;4956954;29;20031;-61
2020/12/15 04:01:21;;;;;;;11.57;7.97;;;;;;;1.24;83.88;98716.34;4957523;29;20348;-61
2020/12/15 04:03:46;;;;;;;13.63;8.03;;;;;;;1.17;84.25;98714.53;4948937;28;20023;-61
2020/12/15 04:06:11;;;;;;;13.07;8.50;;;;;;;1.25;84.60;98717.19;4937441;29;20484;-61
2020/12/15 04:08:37;;;;;;;11.87;7.57;;;;;;;1.33;84.20;98723.25;4942078;28;20027;-61
2020/12/15 04:11:03;;;;;;;14.90;8.33;;;;;;;1.34;83.99;98725.81;4956891;28;20170;-61
2020/12/15 04:13:28;;;;;;;12.80;7.87;;;;;;;1.21;83.67;98730.59;4967095;28;20121;-61
2020/12/15 04:15:53;;;;;;;13.70;8.70;;;;;;;1.26;84.13;98737.44;4975933;28;20045;-61
2020/12/15 04:18:19;;;;;;;14.27;8.43;;;;;;;1.32;84.16;98739.19;4974536;28;20023;-61
2020/12/15 04:20:44;;;;;;;16.27;9.23;;;;;;;1.24;83.58;98740.72;4962847;28;20349;-60
2020/12/15 04:23:09;;;;;;;15.50;8.60;;;;;;;1.21;84.48;98733.97;4938859;29;20023;-61
2020/12/15 04:25:51;;;;;;;11.63;7.90;;;;;;;1.31;84.45;98723.22;4956203;28;20413;-61
2020/12/15 04:28:16;;;;;;;13.63;8.07;;;;;;;1.32;84.56;98719.84;4955816;29;20023;-61
2020/12/15 04:30:41;;;;;;;14.27;9.17;;;;;;;1.38;83.81;98714.06;4974994;28;20030;-60
2020/12/15 04:33:07;;;;;;;14.20;9.40;;;;;;;1.40;83.88;98706.53;4974572;28;20057;-61
2020/12/15 04:35:32;;;;;;;15.07;8.30;;;;;;;1.47;83.39;98721.81;4941459;28;20028;-60
2020/12/15 04:37:58;;;;;;;11.27;7.57;;;;;;;1.26;83.94;98714.72;4936719;29;20020;-61
2020/12/15 04:40:23;;;;;;;14.57;8.27;;;;;;;1.36;83.66;98715.72;4936975;28;20032;-61
2020/12/15 04:42:49;;;;;;;12.93;7.90;;;;;;;1.42;84.25;98713.31;4936530;29;20427;-61
2020/12/15 04:45:14;;;;;;;13.37;7.87;;;;;;;1.46;83.51;98715.06;4961876;28;20027;-61
2020/12/15 04:47:44;;;;;;;13.90;7.47;;;;;;;1.56;83.43;98721.16;4975160;28;20039;-61
2020/12/15 04:50:11;;;;;;;14.10;8.10;;;;;;;1.56;83.43;98721.16;4965891;28;20041;-61
2020/12/15 04:52:58;;;;;;;14.20;7.67;;;;;;;1.57;83.00;98722.84;4955915;28;20038;-61
2020/12/15 04:55:25;;;;;;;13.13;7.60;;;;;;;1.41;83.70;98719.19;4949767;28;20091;-60
2020/12/15 04:57:53;;;;;;;13.47;8.03;;;;;;;1.49;83.28;98725.22;4937072;29;20034;-61
2020/12/15 05:00:19;;;;;;;12.73;8.07;;;;;;;1.30;83.67;98728.25;4941226;28;20022;-61
2020/12/15 05:02:52;;;;;;;14.70;8.97;;;;;;;1.37;84.37;98733.44;4948225;28;20036;-61
2020/12/15 05:05:19;;;;;;;12.47;7.90;;;;;;;1.35;83.50;98732.56;4971535;28;20026;-61
2020/12/15 05:07:45;;;;;;;12.90;8.10;;;;;;;1.39;83.88;98725.88;4974940;28;20093;-61
2020/12/15 05:10:14;;;;;;;15.00;8.77;;;;;;;1.51;83.79;98727.78;4974384;28;20031;-60
2020/12/15 05:12:42;;;;;;;15.37;8.17;;;;;;;1.49;83.50;98724.34;4974343;28;20047;-60
2020/12/15 05:15:09;;;;;;;15.23;8.33;;;;;;;1.46;83.81;98734.41;4974421;28;20037;-61
2020/12/15 05:17:35;;;;;;;13.00;8.03;;;;;;;1.44;83.02;98724.31;4974732;28;20037;-60
2020/12/15 05:20:04;;;;;;;15.97;8.73;;;;;;;1.53;83.64;98729.50;4961140;28;20031;-61
2020/12/15 05:22:39;;;;;;;14.53;8.43;;;;;;;1.59;83.61;98733.81;4955768;29;20039;-60
2020/12/15 05:25:05;;;;;;;17.58;8.27;;;;;;;1.52;83.50;98727.81;4941891;28;20506;-60
2020/12/15 05:27:30;;;;;;;15.83;9.13;;;;;;;1.59;83.14;98729.63;4936503;29;20032;-61
2020/12/15 05:30:11;;;;;;;13.43;8.53;;;;;;;1.71;82.69;98734.88;4951488;28;20033;-60
2020/12/15 05:32:47;;;;;;;14.17;7.80;;;;;;;1.70;82.76;98733.19;4957570;28;20027;-61
2020/12/15 05:35:13;;;;;;;18.63;8.33;;;;;;;1.72;82.18;98739.13;4973809;28;20034;-61
2020/12/15 05:37:45;;;;;;;15.13;9.13;;;;;;;1.68;82.68;98744.94;4974524;28;20033;-60
2020/12/15 05:40:11;;;;;;;16.03;8.17;;;;;;;1.64;82.48;98742.34;4957630;28;20325;-60
2020/12/15 05:42:38;;;;;;;17.83;9.47;;;;;;;1.68;82.99;98754.19;4973604;28;20061;-61
2020/12/15 05:45:05;;;;;;;17.90;9.20;;;;;;;1.75;82.82;98746.75;4974523;28;20162;-60
2020/12/15 05:47:32;;;;;;;17.33;9.07;;;;;;;1.67;83.08;98748.28;4962306;28;20460;-62
2020/12/15 05:49:58;;;;;;;17.67;8.97;;;;;;;1.67;83.12;98742.38;4959861;28;20035;-62
2020/12/15 05:52:28;;;;;;;17.77;8.43;;;;;;;1.74;83.19;98734.94;4936077;28;20480;-62
2020/12/15 05:55:05;;;;;;;14.87;7.90;;;;;;;1.84;82.71;98741.88;4935611;29;20043;-60
2020/12/15 05:57:30;;;;;;;16.63;8.77;;;;;;;1.73;82.09;98738.31;4971752;28;20022;-60
2020/12/15 06:00:06;;;;;;;14.27;7.63;;;;;;;1.82;82.24;98740.97;4973707;28;20045;-59
2020/12/15 06:02:31;;;;;;;15.80;9.37;;;;;;;1.75;82.56;98734.13;4974223;28;20074;-60
2020/12/15 06:04:59;;;;;;;13.23;7.00;;;;;;;1.76;82.23;98730.78;4977028;28;20113;-60
2020/12/15 06:07:26;;;;;;;14.13;8.10;;;;;;;1.75;82.29;98730.72;4974986;28;20101;-60
2020/12/15 06:09:55;;;;;;;13.20;8.00;;;;;;;1.81;81.55;98726.66;4977828;28;20103;-60
2020/12/15 06:12:21;;;;;;;14.17;7.83;;;;;;;1.76;81.84;98733.31;4976583;28;20057;-61
2020/12/15 06:14:48;;;;;;;14.57;8.37;;;;;;;1.72;81.82;98736.59;4976764;28;20027;-60
2020/12/15 06:17:15;;;;;;;14.90;8.80;;;;;;;1.69;82.57;98735.69;4976371;28;20041;-60
2020/12/15 06:19:41;;;;;;;19.30;10.50;;;;;;;1.63;81.66;98736.44;4971988;28;20476;-62
2020/12/15 06:22:09;;;;;;;17.90;8.20;;;;;;;1.71;81.77;98736.56;4961864;28;20058;-61
2020/12/15 06:24:41;;;;;;;13.13;8.20;;;;;;;1.62;81.72;98733.88;4966247;28;20042;-61
2020/12/15 06:27:11;;;;;;;15.63;8.57;;;;;;;1.65;81.77;98737.31;4939175;29;20123;-61
2020/12/15 06:29:40;;;;;;;15.83;8.00;;;;;;;1.66;81.66;98731.44;4949918;28;20028;-61
2020/12/15 06:32:16;;;;;;;16.73;8.30;;;;;;;1.64;81.57;98727.19;4958515;29;20023;-62
2020/12/15 06:34:44;;;;;;;15.50;8.40;;;;;;;1.41;81.91;98729.28;4962245;28;20486;-60
2020/12/15 06:37:10;;;;;;;14.63;8.03;;;;;;;1.38;82.31;98729.22;4959526;28;20389;-62
2020/12/15 06:39:35;;;;;;;12.73;7.73;;;;;;;1.35;81.84;98730.03;4960102;28;20061;-61
2020/12/15 06:42:03;;;;;;;15.23;7.33;;;;;;;1.40;82.50;98734.31;4977304;28;20027;-61
2020/12/15 06:44:37;;;;;;;15.13;8.57;;;;;;;1.44;82.36;98731.88;4958252;28;20038;-60
2020/12/15 06:47:05;;;;;;;14.03;7.83;;;;;;;1.45;81.72;98740.28;4964838;28;20030;-60
2020/12/15 06:49:35;;;;;;;14.50;7.97;;;;;;;1.45;81.49;98738.63;4954550;28;20034;-61
2020/12/15 06:52:03;;;;;;;13.67;8.27;;;;;;;1.44;81.75;98746.19;4953116;28;20026;-62
2020/12/15 06:54:31;;;;;;;13.27;7.37;;;;;;;1.47;81.98;98753.81;4943605;28;20027;-60
2020/12/15 06:57:06;;;;;;;11.17;7.17;;;;;;;1.49;81.97;98749.63;4943606;28;20034;-61
2020/12/15 06:59:37;;;;;;;12.95;7.25;;;;;;;1.52;81.26;98752.22;4942864;28;20031;-61
2020/12/15 07:02:15;;;;;;;12.17;7.30;;;;;;;1.51;80.99;98753.91;4944888;28;20027;-61
2020/12/15 07:04:48;;;;;;;15.07;7.40;;;;;;;1.49;81.13;98752.16;4942294;28;20331;-61
2020/12/15 07:07:16;;;;;;;15.30;7.57;;;;;;;1.42;81.26;98760.44;4946483;28;20582;-62
2020/12/15 07:09:43;;;;;;;16.17;7.93;;;;;;;1.38;81.46;98757.00;4923414;28;20119;-61
2020/12/15 07:12:16;;;;;;;14.90;8.23;;;;;;;1.33;81.64;98751.88;4953501;28;20031;-61
2020/12/15 07:14:49;;;;;;;14.77;8.17;;;;;;;1.28;81.42;98758.50;4954526;28;20068;-63
2020/12/15 07:17:15;;;;;;;10.93;7.17;;;;;;;1.22;82.10;98760.06;4952297;28;20437;-62
2020/12/15 07:19:41;;;;;;;12.87;7.43;;;;;;;1.23;81.34;98757.56;4952301;28;20027;-62
2020/12/15 07:22:07;;;;;;;12.47;7.30;;;;;;;1.27;81.73;98763.53;4947183;28;20102;-62
2020/12/15 07:24:33;;;;;;;10.87;6.80;;;;;;;1.27;81.12;98769.41;4939651;28;20044;-62
2020/12/15 07:26:59;;;;;;;11.53;6.67;;;;;;;1.29;80.88;98777.88;4939807;28;20040;-62
2020/12/15 07:29:25;;;;;;;11.67;7.07;;;;;;;1.33;80.85;98777.13;4943475;28;20094;-61
2020/12/15 07:31:50;;;;;;;12.10;7.17;;;;;;;1.42;80.16;98781.50;4949235;28;20110;-62
2020/12/15 07:34:17;;;;;;;11.10;7.00;;;;;;;1.50;80.21;98782.50;4947455;28;20445;-62
2020/12/15 07:36:51;;;;;;;13.87;7.00;;;;;;;1.58;80.68;98788.53;4945329;28;20023;-62
2020/12/15 07:39:17;;;;;;;12.97;8.63;;;;;;;1.58;80.20;98782.63;4942421;28;20027;-62
2020/12/15 07:41:43;;;;;;;11.43;7.13;;;;;;;1.63;80.12;98783.59;4949704;28;20023;-62
2020/12/15 07:44:18;;;;;;;11.47;6.60;;;;;;;1.81;79.62;98781.41;4939370;28;20047;-62
2020/12/15 07:46:46;;;;;;;13.07;7.67;;;;;;;1.78;79.10;98787.22;4939910;28;20090;-63
2020/12/15 07:49:13;;;;;;;10.40;6.03;;;;;;;1.81;79.03;98794.91;4939749;28;20039;-62
2020/12/15 07:51:39;;;;;;;13.10;7.30;;;;;;;1.76;79.23;98788.91;4946716;28;20111;-62
2020/12/15 07:54:05;;;;;;;10.33;6.33;;;;;;;1.82;79.14;98781.41;4948316;28;20181;-62
2020/12/15 07:56:31;;;;;;;8.87;5.57;;;;;;;2.01;78.31;98785.13;4943799;28;20019;-62
2020/12/15 07:58:58;;;;;;;9.67;6.17;;;;;;;1.98;77.98;98776.63;4942906;28;20032;-63
2020/12/15 08:01:31;;;;;;;11.03;6.30;;;;;;;2.24;77.70;98785.50;4944950;28;20031;-62
2020/12/15 08:04:05;;;;;;;11.67;7.40;;;;;;;2.38;76.76;98781.50;4943013;28;20449;-62
2020/12/15 08:06:33;;;;;;;9.97;6.20;;;;;;;2.52;75.91;98789.31;4940771;28;20123;-62
2020/12/15 08:08:59;;;;;;;10.40;6.27;;;;;;;2.55;76.00;98775.03;4941097;28;20023;-61
2020/12/15 08:11:25;;;;;;;10.13;5.77;;;;;;;2.62;75.68;98788.63;4938868;28;20040;-62
2020/12/15 08:13:51;;;;;;;12.50;6.90;;;;;;;2.66;74.80;98790.38;4938334;28;20040;-62
2020/12/15 08:16:16;;;;;;;13.03;7.43;;;;;;;2.72;75.68;98782.88;4944161;28;20353;-62
2020/12/15 08:18:43;;;;;;;11.33;5.80;;;;;;;2.51;76.57;98788.47;4945549;28;20043;-62
2020/12/15 08:21:18;;;;;;;10.37;6.57;;;;;;;2.59;75.98;98797.03;4952525;28;20035;-63
2020/12/15 08:23:47;;;;;;;13.10;7.28;;;;;;;2.66;75.74;98801.38;4943776;28;20031;-62
2020/12/15 08:26:17;;;;;;;9.70;6.47;;;;;;;2.67;75.65;98805.56;4941541;28;20175;-62
2020/12/15 08:28:44;;;;;;;11.03;5.97;;;;;;;2.89;75.60;98801.69;4941598;28;20027;-62
2020/12/15 08:31:10;;;;;;;10.23;6.43;;;;;;;2.96;75.00;98795.88;4940366;28;20110;-62
2020/12/15 08:33:37;;;;;;;12.37;7.20;;;;;;;3.13;73.95;98791.03;4938457;28;20028;-62
2020/12/15 08:36:02;;;;;;;11.73;6.37;;;;;;;3.17;73.57;98798.69;4938796;28;20166;-62
2020/12/15 08:38:28;;;;;;;10.57;6.40;;;;;;;3.36;72.83;98799.75;4943467;28;20106;-62
2020/12/15 08:40:59;;;;;;;10.80;6.33;;;;;;;3.44;72.97;98802.38;4948281;28;20035;-62
2020/12/15 08:43:26;;;;;;;10.57;6.00;;;;;;;3.49;73.17;98803.28;4943890;28;20046;-62
2020/12/15 08:45:52;;;;;;;10.70;6.27;;;;;;;3.49;72.74;98806.69;4943930;28;20031;-62
2020/12/15 08:48:19;;;;;;;7.93;5.33;;;;;;;3.67;72.32;98811.13;4941063;28;20050;-62
2020/12/15 08:50:46;;;;;;;11.30;5.03;;;;;;;3.75;71.28;98814.59;4950623;28;20106;-62
2020/12/15 08:53:12;;;;;;;8.97;5.30;;;;;;;3.78;71.83;98816.31;4941504;28;20040;-62
2020/12/15 08:55:39;;;;;;;11.23;6.10;;;;;;;3.79;71.92;98812.94;4937814;28;20037;-62
2020/12/15 08:58:06;;;;;;;7.73;4.67;;;;;;;3.94;71.05;98825.78;4943564;28;20070;-62
2020/12/15 09:00:33;;;;;;;7.63;5.27;;;;;;;3.51;72.38;98817.69;4947892;28;20027;-63
2020/12/15 09:03:09;;;;;;;9.37;6.77;;;;;;;3.74;71.66;98814.56;4947804;28;20070;-62
2020/12/15 09:06:04;;;;;;;10.30;6.67;;;;;;;3.90;71.16;98817.31;4940840;28;20058;-63
2020/12/15 09:08:30;;;;;;;10.90;5.87;;;;;;;3.88;71.12;98813.03;4925533;28;20495;-63
2020/12/15 09:10:57;;;;;;;10.33;6.57;;;;;;;3.90;70.86;98813.91;4939100;28;20055;-62
2020/12/15 09:13:23;;;;;;;8.23;5.60;;;;;;;3.97;70.53;98813.97;4946510;28;20050;-62
2020/12/15 09:15:53;;;;;;;11.47;6.07;;;;;;;4.12;71.17;98819.19;4947485;28;20023;-62
2020/12/15 09:18:36;;;;;;;9.87;6.13;;;;;;;4.23;70.61;98823.53;4943248;28;20055;-61
2020/12/15 09:21:27;;;;;;;12.87;5.93;;;;;;;4.26;70.43;98814.25;4950629;28;20035;-61
2020/12/15 09:23:54;;;;;;;9.17;5.67;;;;;;;4.19;70.38;98812.50;4943357;28;20449;-61
2020/12/15 09:26:21;;;;;;;13.27;7.47;;;;;;;4.23;70.98;98814.22;4940960;28;20090;-62
2020/12/15 09:28:50;;;;;;;8.10;5.53;;;;;;;4.14;71.91;98807.38;4944363;28;20047;-61
2020/12/15 09:31:18;;;;;;;10.20;5.50;;;;;;;4.26;71.63;98799.03;4939559;28;20102;-61
2020/12/15 09:33:44;;;;;;;12.43;6.50;;;;;;;4.24;71.74;98807.47;4941258;28;20114;-61
2020/12/15 09:36:14;;;;;;;10.87;5.67;;;;;;;4.42;72.06;98800.00;4950143;28;20070;-62
2020/12/15 09:38:40;;;;;;;9.63;6.13;;;;;;;4.23;72.33;98798.16;4945114;28;20066;-62
2020/12/15 09:41:06;;;;;;;9.60;6.80;;;;;;;4.03;72.29;98800.53;4948848;28;20325;-63
2020/12/15 09:43:31;;;;;;;7.57;5.10;;;;;;;4.25;72.01;98797.31;4949143;28;20023;-62
2020/12/15 09:45:56;;;;;;;13.60;5.73;;;;;;;4.39;72.00;98792.38;4933829;28;20023;-62
2020/12/15 09:48:22;;;;;;;10.57;6.40;;;;;;;4.50;72.79;98799.22;4948490;28;20048;-62
2020/12/15 09:50:49;;;;;;;12.57;6.00;;;;;;;4.51;71.97;98805.16;4956151;28;20023;-62
2020/12/15 09:53:15;;;;;;;12.00;6.13;;;;;;;4.66;70.46;98797.66;4943708;28;20046;-62
2020/12/15 09:55:40;;;;;;;11.17;7.27;;;;;;;4.62;70.18;98793.41;4943759;28;20445;-62
2020/12/15 09:58:06;;;;;;;10.40;6.23;;;;;;;4.72;71.08;98784.13;4941600;28;20034;-62
2020/12/15 10:00:31;;;;;;;11.23;6.17;;;;;;;4.41;71.78;98783.91;4946916;28;20039;-63
2020/12/15 10:02:56;;;;;;;12.33;6.57;;;;;;;4.45;72.10;98785.66;4949523;28;20106;-62
2020/12/15 10:05:22;;;;;;;10.77;6.23;;;;;;;4.69;70.85;98787.50;4929718;29;20091;-62
2020/12/15 10:07:47;;;;;;;11.20;6.83;;;;;;;5.00;70.33;98796.19;4952362;28;20066;-61
2020/12/15 10:10:16;;;;;;;11.63;7.47;;;;;;;5.18;68.92;98786.09;4954353;28;20152;-62
2020/12/15 10:12:42;;;;;;;13.27;7.17;;;;;;;5.03;68.66;98780.94;4929516;29;20540;-65
2020/12/15 10:15:08;;;;;;;13.63;7.20;;;;;;;4.98;69.66;98786.00;4930723;29;20460;-64
2020/12/15 10:17:33;;;;;;;8.30;5.63;;;;;;;5.02;69.14;98782.63;4928485;29;20024;-62
2020/12/15 10:19:59;;;;;;;12.47;7.20;;;;;;;4.76;70.58;98775.69;4928669;29;20024;-63
2020/12/15 10:22:25;;;;;;;9.87;5.87;;;;;;;5.00;70.27;98771.63;4925194;29;20035;-65
2020/12/15 10:24:51;;;;;;;8.67;5.63;;;;;;;5.37;69.24;98777.72;4928721;29;20092;-62
2020/12/15 10:27:16;;;;;;;11.43;6.87;;;;;;;5.56;67.49;98783.72;4929163;29;20467;-61
2020/12/15 10:29:42;;;;;;;8.93;5.93;;;;;;;5.87;66.86;98782.13;4927542;29;20028;-62
2020/12/15 10:32:07;;;;;;;9.70;6.43;;;;;;;5.92;66.40;98783.00;4935508;29;20028;-63
2020/12/15 10:34:32;;;;;;;9.10;6.57;;;;;;;5.84;66.72;98779.56;4933298;29;20449;-63
2020/12/15 10:36:58;;;;;;;11.73;6.60;;;;;;;5.51;67.66;98778.63;4930105;29;20023;-64
2020/12/15 10:39:23;;;;;;;10.40;6.23;;;;;;;5.81;67.15;98771.94;4934907;29;20050;-62
2020/12/15 10:41:52;;;;;;;11.63;6.27;;;;;;;5.97;65.60;98766.91;4929655;29;20055;-62
2020/12/15 10:44:17;;;;;;;10.37;6.10;;;;;;;5.96;66.68;98764.34;4931222;29;20037;-61
2020/12/15 10:46:46;;;;;;;12.80;7.00;;;;;;;6.05;65.47;98764.38;4931556;29;20032;-60
2020/12/15 10:49:13;;;;;;;13.67;6.53;;;;;;;5.94;66.92;98764.34;4929448;29;20034;-60
2020/12/15 10:51:39;;;;;;;9.57;6.93;;;;;;;6.17;66.66;98764.38;4931145;29;20028;-60
2020/12/15 10:54:05;;;;;;;10.50;6.43;;;;;;;5.88;66.47;98773.66;4926508;29;20373;-62
2020/12/15 10:56:30;;;;;;;12.00;7.03;;;;;;;5.96;65.91;98771.97;4929370;29;20024;-61
2020/12/15 10:58:56;;;;;;;10.93;7.00;;;;;;;6.25;65.28;98755.03;4923364;29;20058;-61
2020/12/15 11:01:22;;;;;;;10.37;6.93;;;;;;;6.52;64.99;98750.78;4924450;29;20091;-61
2020/12/15 11:03:47;;;;;;;13.77;8.10;;;;;;;6.52;64.48;98755.88;4927111;29;20023;-61
2020/12/15 11:06:13;;;;;;;12.10;7.20;;;;;;;6.26;64.04;98759.28;4928290;29;20032;-61
2020/12/15 11:08:41;;;;;;;12.27;6.57;;;;;;;6.66;64.08;98751.63;4929413;29;20445;-61
2020/12/15 11:11:10;;;;;;;12.23;6.90;;;;;;;6.34;64.24;98752.50;4936759;29;20099;-61
2020/12/15 11:13:36;;;;;;;11.67;7.53;;;;;;;6.04;65.12;98749.94;4950058;28;20043;-61
2020/12/15 11:16:01;;;;;;;11.30;7.33;;;;;;;6.13;65.42;98746.53;4954909;28;20042;-62
2020/12/15 11:18:26;;;;;;;13.17;6.70;;;;;;;6.30;65.05;98740.63;4946162;28;20028;-61
2020/12/15 11:20:52;;;;;;;13.00;6.97;;;;;;;6.35;64.70;98738.06;4950491;28;20114;-62
2020/12/15 11:23:17;;;;;;;11.83;7.17;;;;;;;6.28;65.22;98744.03;4943500;28;20019;-62
2020/12/15 11:25:43;;;;;;;11.47;6.83;;;;;;;6.31;64.12;98736.38;4952116;28;20132;-62
2020/12/15 11:28:09;;;;;;;12.10;7.47;;;;;;;6.37;64.52;98729.56;4949977;28;20031;-61
2020/12/15 11:30:34;;;;;;;11.37;7.13;;;;;;;6.24;65.79;98737.19;4942548;28;20040;-62
2020/12/15 11:32:59;;;;;;;11.07;7.03;;;;;;;6.26;65.42;98736.38;4940222;28;20360;-62